createdAt,value
2018-02-25T00:00:02.681Z,60.24
2018-02-25T00:01:02.634Z,60.61
2018-02-25T00:02:02.588Z,60.24
2018-02-25T00:03:02.542Z,60.71
2018-02-25T00:04:02.511Z,60.61
2018-02-25T00:05:02.442Z,60.42
2018-02-25T00:06:02.400Z,60.42
2018-02-25T00:07:02.343Z,60.14
2018-02-25T00:08:02.304Z,59.67
2018-02-25T00:09:02.279Z,59.00
2018-02-25T00:10:02.208Z,59.57
2018-02-25T00:11:02.153Z,58.91
2018-02-25T00:12:02.114Z,59.67
2018-02-25T00:13:02.058Z,59.38
2018-02-25T00:14:02.041Z,59.48
2018-02-25T00:15:01.971Z,59.38
2018-02-25T00:16:01.922Z,59.76
2018-02-25T00:17:01.870Z,59.48
2018-02-25T00:18:01.819Z,60.05
2018-02-25T00:19:01.802Z,60.14
2018-02-25T00:20:01.722Z,60.24
2018-02-25T00:21:01.684Z,60.14
2018-02-25T00:22:01.625Z,60.33
2018-02-25T00:23:01.580Z,60.24
2018-02-25T00:24:01.531Z,60.24
2018-02-25T00:25:01.515Z,60.80
2018-02-25T00:26:01.443Z,61.36
2018-02-25T00:27:01.393Z,60.89
2018-02-25T00:28:01.348Z,61.18
2018-02-25T00:29:01.313Z,61.65
2018-02-25T00:30:01.271Z,62.40
2018-02-25T00:31:01.201Z,62.02
2018-02-25T00:32:01.151Z,62.02
2018-02-25T00:33:01.099Z,61.93
2018-02-25T00:34:01.051Z,62.02
2018-02-25T00:35:01.033Z,62.21
2018-02-25T00:36:00.957Z,62.12
2018-02-25T00:37:00.910Z,61.93
2018-02-25T00:38:00.861Z,62.21
2018-02-25T00:39:00.812Z,62.31
2018-02-25T00:40:00.797Z,62.21
2018-02-25T00:41:00.740Z,61.84
2018-02-25T00:42:00.673Z,62.21
2018-02-25T00:43:00.622Z,62.40
2018-02-25T00:44:00.573Z,62.40
2018-02-25T00:45:00.531Z,62.12
2018-02-25T00:46:00.508Z,62.21
2018-02-25T00:47:00.428Z,62.97
2018-02-25T00:48:00.379Z,63.60
2018-02-25T00:49:00.342Z,63.79
2018-02-25T00:50:00.288Z,64.83
2018-02-25T00:51:00.261Z,64.07
2018-02-25T00:52:00.192Z,62.78
2018-02-25T00:53:00.139Z,62.88
2018-02-25T00:54:00.090Z,62.88
2018-02-25T00:55:00.044Z,63.41
2018-02-25T00:56:00.027Z,63.13
2018-02-25T00:56:59.948Z,63.32
2018-02-25T00:57:59.909Z,63.60
2018-02-25T00:58:59.862Z,63.60
2018-02-25T00:59:59.812Z,63.03
2018-02-25T01:00:59.782Z,63.26
2018-02-25T01:01:59.709Z,62.50
2018-02-25T01:02:59.663Z,63.45
2018-02-25T01:03:59.618Z,63.98
2018-02-25T01:04:59.570Z,63.98
2018-02-25T01:05:59.513Z,62.88
2018-02-25T01:06:59.498Z,62.40
2018-02-25T01:07:59.421Z,62.31
2018-02-25T01:08:59.375Z,62.21
2018-02-25T01:09:59.328Z,61.93
2018-02-25T01:10:59.293Z,61.74
2018-02-25T01:11:59.253Z,62.02
2018-02-25T01:12:59.187Z,61.84
2018-02-25T01:13:59.125Z,61.84
2018-02-25T01:14:59.091Z,62.12
2018-02-25T01:15:59.040Z,61.93
2018-02-25T01:16:59.006Z,62.21
2018-02-25T01:17:58.938Z,62.02
2018-02-25T01:18:58.891Z,61.93
2018-02-25T01:19:58.844Z,61.93
2018-02-25T01:20:58.803Z,61.90
2018-02-25T01:21:58.764Z,62.02
2018-02-25T01:22:58.701Z,62.09
2018-02-25T01:23:58.654Z,61.80
2018-02-25T01:24:58.601Z,62.09
2018-02-25T01:25:58.556Z,62.47
2018-02-25T01:26:58.528Z,62.18
2018-02-25T01:27:58.460Z,62.28
2018-02-25T01:28:58.402Z,62.18
2018-02-25T01:29:58.363Z,62.37
2018-02-25T01:30:58.306Z,62.37
2018-02-25T01:31:58.262Z,62.84
2018-02-25T01:32:58.235Z,62.75
2018-02-25T01:33:58.161Z,63.32
2018-02-25T01:34:58.114Z,62.75
2018-02-25T01:35:58.077Z,62.66
2018-02-25T01:36:58.026Z,62.12
2018-02-25T01:37:58.005Z,62.47
2018-02-25T01:38:57.927Z,62.02
2018-02-25T01:39:57.883Z,62.50
2018-02-25T01:40:57.832Z,62.09
2018-02-25T01:41:57.787Z,61.93
2018-02-25T01:42:57.754Z,61.18
2018-02-25T01:43:57.682Z,62.12
2018-02-25T01:44:57.634Z,61.80
2018-02-25T01:45:57.608Z,61.99
2018-02-25T01:46:57.534Z,62.28
2018-02-25T01:47:57.509Z,62.37
2018-02-25T01:48:57.439Z,63.22
2018-02-25T01:49:57.398Z,63.03
2018-02-25T01:50:57.346Z,63.41
2018-02-25T01:51:57.294Z,63.89
2018-02-25T01:52:57.284Z,63.60
2018-02-25T01:53:57.195Z,64.64
2018-02-25T01:54:57.173Z,63.98
2018-02-25T01:55:57.104Z,63.60
2018-02-25T01:56:57.053Z,63.70
2018-02-25T01:57:57.003Z,64.92
2018-02-25T01:58:56.988Z,65.58
2018-02-25T01:59:56.911Z,66.43
2018-02-25T02:00:56.858Z,66.90
2018-02-25T02:01:56.807Z,66.52
2018-02-25T02:02:56.770Z,66.24
2018-02-25T02:03:56.740Z,65.39
2018-02-25T02:04:56.663Z,64.83
2018-02-25T02:05:56.615Z,65.11
2018-02-25T02:06:56.564Z,65.30
2018-02-25T02:07:56.524Z,65.01
2018-02-25T02:08:56.500Z,65.30
2018-02-25T02:09:56.430Z,65.48
2018-02-25T02:10:56.381Z,65.20
2018-02-25T02:11:56.328Z,65.01
2018-02-25T02:12:56.284Z,64.26
2018-02-25T02:13:56.260Z,64.17
2018-02-25T02:14:56.183Z,64.26
2018-02-25T02:15:56.129Z,63.98
2018-02-25T02:16:56.084Z,64.36
2018-02-25T02:17:56.032Z,64.26
2018-02-25T02:18:55.996Z,64.64
2018-02-25T02:19:55.961Z,64.36
2018-02-25T02:20:55.898Z,64.36
2018-02-25T02:21:55.842Z,64.73
2018-02-25T02:22:55.789Z,64.54
2018-02-25T02:23:55.743Z,64.17
2018-02-25T02:24:55.731Z,64.17
2018-02-25T02:25:55.650Z,64.26
2018-02-25T02:26:55.602Z,64.45
2018-02-25T02:27:55.554Z,64.83
2018-02-25T02:28:55.502Z,65.20
2018-02-25T02:29:55.502Z,65.48
2018-02-25T02:30:55.398Z,65.39
2018-02-25T02:31:55.360Z,65.01
2018-02-25T02:32:55.306Z,65.30
2018-02-25T02:33:55.259Z,65.20
2018-02-25T02:34:55.228Z,65.11
2018-02-25T02:35:55.162Z,65.01
2018-02-25T02:36:55.113Z,64.92
2018-02-25T02:37:55.059Z,64.83
2018-02-25T02:38:55.013Z,64.64
2018-02-25T02:39:55.053Z,64.54
2018-02-25T02:40:54.919Z,64.07
2018-02-25T02:41:54.870Z,64.07
2018-02-25T02:42:54.826Z,64.07
2018-02-25T02:43:54.767Z,63.60
2018-02-25T02:44:54.716Z,63.98
2018-02-25T02:45:54.701Z,63.89
2018-02-25T02:46:54.629Z,63.79
2018-02-25T02:47:54.582Z,63.89
2018-02-25T02:48:54.528Z,63.98
2018-02-25T02:49:54.483Z,63.60
2018-02-25T02:50:54.448Z,63.98
2018-02-25T02:51:54.389Z,63.60
2018-02-25T02:52:54.333Z,63.98
2018-02-25T02:53:54.280Z,63.60
2018-02-25T02:54:54.239Z,63.98
2018-02-25T02:55:54.217Z,63.70
2018-02-25T02:56:54.134Z,64.45
2018-02-25T02:57:54.085Z,64.45
2018-02-25T02:58:54.044Z,64.73
2018-02-25T02:59:53.989Z,64.73
2018-02-25T03:00:53.972Z,64.73
2018-02-25T03:01:53.898Z,64.26
2018-02-25T03:02:53.858Z,64.73
2018-02-25T03:03:53.791Z,64.54
2018-02-25T03:04:53.763Z,64.54
2018-02-25T03:05:53.732Z,64.83
2018-02-25T03:06:53.655Z,65.01
2018-02-25T03:07:53.602Z,64.73
2018-02-25T03:08:53.557Z,64.83
2018-02-25T03:09:53.507Z,64.92
2018-02-25T03:10:53.452Z,65.01
2018-02-25T03:11:53.429Z,64.83
2018-02-25T03:12:53.357Z,65.01
2018-02-25T03:13:53.314Z,65.01
2018-02-25T03:14:53.256Z,64.73
2018-02-25T03:15:53.222Z,64.73
2018-02-25T03:16:53.197Z,64.07
2018-02-25T03:17:53.112Z,64.83
2018-02-25T03:18:53.061Z,64.54
2018-02-25T03:19:53.013Z,64.92
2018-02-25T03:20:52.965Z,64.83
2018-02-25T03:21:52.952Z,64.83
2018-02-25T03:22:52.871Z,65.01
2018-02-25T03:23:52.818Z,64.54
2018-02-25T03:24:52.777Z,64.92
2018-02-25T03:25:52.740Z,65.01
2018-02-25T03:26:52.698Z,65.01
2018-02-25T03:27:52.630Z,65.39
2018-02-25T03:28:52.603Z,65.11
2018-02-25T03:29:52.532Z,65.77
2018-02-25T03:30:52.485Z,65.58
2018-02-25T03:31:52.438Z,65.20
2018-02-25T03:32:52.419Z,65.58
2018-02-25T03:33:52.328Z,65.58
2018-02-25T03:34:52.279Z,65.58
2018-02-25T03:35:52.236Z,65.01
2018-02-25T03:36:52.190Z,64.92
2018-02-25T03:37:52.168Z,65.20
2018-02-25T03:38:52.102Z,65.01
2018-02-25T03:39:52.037Z,65.01
2018-02-25T03:40:51.988Z,65.20
2018-02-25T03:41:51.949Z,65.30
2018-02-25T03:42:51.909Z,65.11
2018-02-25T03:43:51.848Z,64.92
2018-02-25T03:44:51.802Z,65.86
2018-02-25T03:45:51.748Z,65.58
2018-02-25T03:46:51.695Z,65.48
2018-02-25T03:47:51.675Z,65.86
2018-02-25T03:48:51.613Z,65.58
2018-02-25T03:49:51.544Z,66.05
2018-02-25T03:50:51.499Z,65.86
2018-02-25T03:51:51.452Z,65.67
2018-02-25T03:52:51.430Z,65.67
2018-02-25T03:53:51.361Z,65.77
2018-02-25T03:54:51.310Z,65.77
2018-02-25T03:55:51.261Z,65.58
2018-02-25T03:56:51.205Z,65.39
2018-02-25T03:57:51.156Z,65.39
2018-02-25T03:58:51.140Z,65.58
2018-02-25T03:59:51.065Z,65.58
2018-02-25T04:00:51.009Z,66.15
2018-02-25T04:01:50.967Z,65.67
2018-02-25T04:02:50.922Z,65.01
2018-02-25T04:03:50.898Z,65.77
2018-02-25T04:04:50.826Z,65.67
2018-02-25T04:05:50.777Z,65.77
2018-02-25T04:06:50.727Z,65.96
2018-02-25T04:07:50.666Z,66.05
2018-02-25T04:08:50.644Z,65.96
2018-02-25T04:09:50.569Z,65.58
2018-02-25T04:10:50.519Z,65.67
2018-02-25T04:11:50.474Z,65.96
2018-02-25T04:12:50.420Z,65.96
2018-02-25T04:13:50.399Z,65.96
2018-02-25T04:14:50.329Z,66.24
2018-02-25T04:15:50.286Z,65.96
2018-02-25T04:16:50.251Z,66.05
2018-02-25T04:17:50.180Z,65.67
2018-02-25T04:18:50.162Z,65.77
2018-02-25T04:19:50.091Z,66.05
2018-02-25T04:20:50.037Z,65.58
2018-02-25T04:21:49.983Z,65.39
2018-02-25T04:22:49.934Z,65.58
2018-02-25T04:23:49.884Z,65.86
2018-02-25T04:24:49.856Z,65.20
2018-02-25T04:25:49.796Z,65.11
2018-02-25T04:26:49.742Z,65.20
2018-02-25T04:27:49.692Z,65.11
2018-02-25T04:28:49.649Z,65.77
2018-02-25T04:29:49.611Z,65.39
2018-02-25T04:30:49.547Z,65.48
2018-02-25T04:31:49.489Z,65.77
2018-02-25T04:32:49.451Z,65.48
2018-02-25T04:33:49.394Z,65.58
2018-02-25T04:34:49.375Z,65.48
2018-02-25T04:35:49.304Z,65.58
2018-02-25T04:36:49.251Z,65.48
2018-02-25T04:37:49.199Z,65.67
2018-02-25T04:38:49.156Z,65.11
2018-02-25T04:39:49.129Z,65.11
2018-02-25T04:40:49.050Z,65.48
2018-02-25T04:41:49.002Z,65.48
2018-02-25T04:42:48.959Z,65.01
2018-02-25T04:43:48.909Z,64.73
2018-02-25T04:44:48.890Z,64.73
2018-02-25T04:45:48.807Z,64.92
2018-02-25T04:46:48.756Z,64.64
2018-02-25T04:47:48.710Z,64.64
2018-02-25T04:48:48.660Z,65.20
2018-02-25T04:49:48.618Z,64.64
2018-02-25T04:50:48.592Z,64.73
2018-02-25T04:51:48.521Z,64.83
2018-02-25T04:52:48.473Z,65.11
2018-02-25T04:53:48.417Z,64.73
2018-02-25T04:54:48.364Z,64.73
2018-02-25T04:55:48.338Z,64.73
2018-02-25T04:56:48.266Z,64.83
2018-02-25T04:57:48.245Z,64.73
2018-02-25T04:58:48.165Z,64.73
2018-02-25T04:59:48.123Z,64.73
2018-02-25T05:00:48.092Z,64.73
2018-02-25T05:01:48.021Z,64.83
2018-02-25T05:02:47.972Z,65.30
2018-02-25T05:03:47.930Z,65.20
2018-02-25T05:04:47.873Z,64.83
2018-02-25T05:05:47.855Z,65.77
2018-02-25T05:06:47.776Z,65.11
2018-02-25T05:07:47.723Z,65.01
2018-02-25T05:08:47.683Z,65.11
2018-02-25T05:09:47.634Z,64.98
2018-02-25T05:10:47.576Z,65.83
2018-02-25T05:11:47.557Z,65.83
2018-02-25T05:12:47.484Z,65.73
2018-02-25T05:13:47.444Z,65.17
2018-02-25T05:14:47.384Z,65.26
2018-02-25T05:15:47.333Z,65.08
2018-02-25T05:16:47.305Z,65.08
2018-02-25T05:17:47.247Z,65.17
2018-02-25T05:18:47.188Z,65.17
2018-02-25T05:19:47.140Z,65.17
2018-02-25T05:20:47.094Z,65.73
2018-02-25T05:21:47.061Z,64.98
2018-02-25T05:22:46.989Z,64.79
2018-02-25T05:23:46.947Z,65.64
2018-02-25T05:24:46.891Z,65.64
2018-02-25T05:25:46.847Z,65.73
2018-02-25T05:26:46.816Z,64.98
2018-02-25T05:27:46.748Z,65.26
2018-02-25T05:28:46.691Z,65.08
2018-02-25T05:29:46.648Z,65.17
2018-02-25T05:30:46.590Z,64.98
2018-02-25T05:31:46.573Z,65.36
2018-02-25T05:32:46.502Z,64.89
2018-02-25T05:33:46.444Z,64.98
2018-02-25T05:34:46.398Z,64.79
2018-02-25T05:35:46.352Z,64.98
2018-02-25T05:36:46.305Z,64.89
2018-02-25T05:37:46.280Z,65.08
2018-02-25T05:38:46.207Z,65.45
2018-02-25T05:39:46.159Z,65.26
2018-02-25T05:40:46.105Z,65.17
2018-02-25T05:41:46.056Z,65.17
2018-02-25T05:42:46.034Z,65.17
2018-02-25T05:43:45.958Z,65.08
2018-02-25T05:44:45.910Z,64.98
2018-02-25T05:45:45.857Z,64.98
2018-02-25T05:46:45.803Z,64.79
2018-02-25T05:47:45.785Z,64.98
2018-02-25T05:48:45.713Z,64.98
2018-02-25T05:49:45.662Z,65.64
2018-02-25T05:50:45.613Z,65.64
2018-02-25T05:51:45.562Z,65.45
2018-02-25T05:52:45.531Z,65.64
2018-02-25T05:53:45.461Z,65.17
2018-02-25T05:54:45.458Z,64.98
2018-02-25T05:55:45.363Z,65.64
2018-02-25T05:56:45.311Z,65.26
2018-02-25T05:57:45.291Z,65.08
2018-02-25T05:58:45.220Z,64.79
2018-02-25T05:59:45.169Z,64.32
2018-02-25T06:00:45.121Z,64.32
2018-02-25T06:01:45.067Z,64.70
2018-02-25T06:02:45.042Z,64.79
2018-02-25T06:03:44.971Z,64.98
2018-02-25T06:04:44.926Z,64.89
2018-02-25T06:05:44.876Z,64.89
2018-02-25T06:06:44.886Z,64.79
2018-02-25T06:07:44.770Z,64.98
2018-02-25T06:08:44.751Z,64.79
2018-02-25T06:09:44.681Z,64.70
2018-02-25T06:10:44.625Z,64.79
2018-02-25T06:11:44.583Z,64.61
2018-02-25T06:12:44.521Z,65.08
2018-02-25T06:13:44.504Z,65.08
2018-02-25T06:14:44.423Z,65.26
2018-02-25T06:15:44.383Z,64.70
2018-02-25T06:16:44.325Z,64.79
2018-02-25T06:17:44.284Z,64.79
2018-02-25T06:18:44.255Z,64.89
2018-02-25T06:19:44.187Z,64.98
2018-02-25T06:20:44.134Z,64.79
2018-02-25T06:21:44.086Z,64.89
2018-02-25T06:22:44.036Z,64.98
2018-02-25T06:23:44.008Z,65.17
2018-02-25T06:24:43.931Z,65.83
2018-02-25T06:25:43.879Z,65.73
2018-02-25T06:26:43.832Z,65.08
2018-02-25T06:27:43.781Z,65.64
2018-02-25T06:28:43.732Z,64.98
2018-02-25T06:29:43.715Z,64.98
2018-02-25T06:30:43.641Z,64.89
2018-02-25T06:31:43.594Z,65.55
2018-02-25T06:32:43.544Z,65.36
2018-02-25T06:33:43.482Z,65.55
2018-02-25T06:34:43.466Z,65.45
2018-02-25T06:35:43.392Z,65.73
2018-02-25T06:36:43.380Z,66.21
2018-02-25T06:37:43.297Z,65.36
2018-02-25T06:38:43.239Z,65.64
2018-02-25T06:39:43.215Z,65.83
2018-02-25T06:40:43.146Z,65.64
2018-02-25T06:41:43.099Z,64.98
2018-02-25T06:42:43.042Z,65.26
2018-02-25T06:43:42.999Z,65.64
2018-02-25T06:44:42.977Z,65.83
2018-02-25T06:45:42.893Z,65.64
2018-02-25T06:46:42.855Z,65.83
2018-02-25T06:47:42.793Z,65.73
2018-02-25T06:48:42.752Z,65.64
2018-02-25T06:49:42.702Z,65.26
2018-02-25T06:50:42.677Z,65.55
2018-02-25T06:51:42.595Z,65.26
2018-02-25T06:52:42.554Z,65.64
2018-02-25T06:53:42.505Z,65.73
2018-02-25T06:54:42.482Z,65.73
2018-02-25T06:55:42.406Z,65.55
2018-02-25T06:56:42.372Z,64.79
2018-02-25T06:57:42.304Z,65.17
2018-02-25T06:58:42.253Z,64.79
2018-02-25T06:59:42.202Z,65.64
2018-02-25T07:00:42.178Z,64.98
2018-02-25T07:01:42.111Z,64.64
2018-02-25T07:02:42.061Z,63.98
2018-02-25T07:03:42.014Z,62.47
2018-02-25T07:04:41.964Z,61.65
2018-02-25T07:05:41.927Z,60.33
2018-02-25T07:06:41.870Z,59.67
2018-02-25T07:07:41.812Z,59.67
2018-02-25T07:08:41.771Z,58.37
2018-02-25T07:09:41.721Z,57.71
2018-02-25T07:10:41.697Z,56.67
2018-02-25T07:11:41.617Z,56.39
2018-02-25T07:12:41.576Z,55.44
2018-02-25T07:13:41.517Z,54.41
2018-02-25T07:14:41.478Z,54.41
2018-02-25T07:15:41.456Z,54.15
2018-02-25T07:16:41.403Z,53.30
2018-02-25T07:17:41.335Z,52.92
2018-02-25T07:18:41.284Z,52.64
2018-02-25T07:19:41.249Z,52.92
2018-02-25T07:20:41.194Z,56.80
2018-02-25T07:21:41.180Z,56.23
2018-02-25T07:22:41.106Z,54.91
2018-02-25T07:23:41.064Z,53.61
2018-02-25T07:24:41.016Z,52.67
2018-02-25T07:25:40.991Z,51.50
2018-02-25T07:26:40.951Z,51.69
2018-02-25T07:27:40.870Z,52.07
2018-02-25T07:28:40.823Z,51.72
2018-02-25T07:29:40.781Z,51.34
2018-02-25T07:30:40.744Z,51.09
2018-02-25T07:31:40.722Z,49.66
2018-02-25T07:32:40.666Z,49.10
2018-02-25T07:33:40.601Z,48.15
2018-02-25T07:34:40.571Z,48.32
2018-02-25T07:35:40.517Z,49.35
2018-02-25T07:36:40.493Z,48.88
2018-02-25T07:37:40.433Z,48.41
2018-02-25T07:38:40.387Z,48.32
2018-02-25T07:39:40.341Z,48.88
2018-02-25T07:40:40.305Z,48.50
2018-02-25T07:41:40.257Z,48.13
2018-02-25T07:42:40.236Z,48.41
2018-02-25T07:43:40.166Z,48.53
2018-02-25T07:44:40.134Z,48.34
2018-02-25T07:45:40.074Z,48.15
2018-02-25T07:46:40.027Z,47.49
2018-02-25T07:47:40.022Z,47.58
2018-02-25T07:48:39.948Z,47.49
2018-02-25T07:49:39.901Z,47.11
2018-02-25T07:50:39.874Z,46.64
2018-02-25T07:51:39.828Z,47.68
2018-02-25T07:52:39.795Z,47.87
2018-02-25T07:53:39.735Z,47.58
2018-02-25T07:54:39.695Z,47.39
2018-02-25T07:55:39.650Z,47.20
2018-02-25T07:56:39.603Z,46.83
2018-02-25T07:57:39.590Z,47.11
2018-02-25T07:58:39.537Z,47.70
2018-02-25T07:59:39.487Z,46.36
2018-02-25T08:00:39.445Z,46.66
2018-02-25T08:01:39.394Z,45.90
2018-02-25T08:02:39.386Z,45.24
2018-02-25T08:03:39.307Z,45.05
2018-02-25T08:04:39.277Z,44.20
2018-02-25T08:05:39.238Z,44.39
2018-02-25T08:06:39.192Z,44.56
2018-02-25T08:07:39.843Z,45.67
2018-02-25T08:08:39.816Z,47.66
2018-02-25T08:09:39.059Z,48.15
2018-02-25T08:10:39.034Z,48.06
2018-02-25T08:11:38.984Z,46.92
2018-02-25T08:12:38.943Z,46.36
2018-02-25T08:13:38.946Z,46.07
2018-02-25T08:14:38.901Z,46.45
2018-02-25T08:15:38.816Z,46.33
2018-02-25T08:16:38.770Z,47.82
2018-02-25T08:17:38.734Z,49.05
2018-02-25T08:18:38.721Z,49.16
2018-02-25T08:19:38.653Z,49.45
2018-02-25T08:20:38.613Z,49.16
2018-02-25T08:21:38.570Z,49.14
2018-02-25T08:22:38.565Z,49.35
2018-02-25T08:23:38.511Z,49.16
2018-02-25T08:24:38.445Z,49.10
2018-02-25T08:25:38.405Z,47.87
2018-02-25T08:26:38.354Z,47.58
2018-02-25T08:27:38.323Z,47.66
2018-02-25T08:28:38.283Z,47.28
2018-02-25T08:29:38.268Z,47.11
2018-02-25T08:30:38.186Z,46.92
2018-02-25T08:31:38.154Z,46.26
2018-02-25T08:32:38.107Z,47.20
2018-02-25T08:33:38.086Z,46.90
2018-02-25T08:34:38.058Z,47.49
2018-02-25T08:35:38.003Z,46.36
2018-02-25T08:36:37.979Z,45.88
2018-02-25T08:37:37.900Z,45.24
2018-02-25T08:38:37.869Z,45.22
2018-02-25T08:39:37.840Z,44.96
2018-02-25T08:40:37.777Z,45.03
2018-02-25T08:41:37.734Z,45.50
2018-02-25T08:42:37.699Z,45.31
2018-02-25T08:43:37.654Z,44.84
2018-02-25T08:44:37.642Z,45.22
2018-02-25T08:45:37.572Z,44.65
2018-02-25T08:46:37.548Z,44.58
2018-02-25T08:47:37.498Z,44.58
2018-02-25T08:48:37.457Z,43.91
2018-02-25T08:49:37.444Z,43.54
2018-02-25T08:50:37.377Z,43.16
2018-02-25T08:51:37.332Z,43.61
2018-02-25T08:52:37.293Z,44.09
2018-02-25T08:53:37.254Z,43.52
2018-02-25T08:54:37.213Z,43.14
2018-02-25T08:55:37.199Z,43.80
2018-02-25T08:56:37.129Z,44.65
2018-02-25T08:57:37.087Z,44.20
2018-02-25T08:58:37.049Z,42.88
2018-02-25T08:59:37.032Z,42.30
2018-02-25T09:00:36.966Z,42.40
2018-02-25T09:01:36.941Z,42.02
2018-02-25T09:02:36.934Z,41.82
2018-02-25T09:03:36.857Z,42.59
2018-02-25T09:04:36.839Z,42.88
2018-02-25T09:05:36.794Z,42.21
2018-02-25T09:06:36.729Z,42.40
2018-02-25T09:07:36.690Z,42.11
2018-02-25T09:08:36.658Z,41.83
2018-02-25T09:09:36.605Z,41.00
2018-02-25T09:10:36.586Z,40.63
2018-02-25T09:11:36.527Z,40.41
2018-02-25T09:12:36.496Z,40.98
2018-02-25T09:13:36.455Z,41.93
2018-02-25T09:14:36.413Z,42.02
2018-02-25T09:15:36.403Z,41.46
2018-02-25T09:16:36.347Z,40.70
2018-02-25T09:17:36.297Z,40.53
2018-02-25T09:18:36.252Z,40.51
2018-02-25T09:19:36.221Z,40.81
2018-02-25T09:20:36.212Z,40.25
2018-02-25T09:21:36.164Z,40.32
2018-02-25T09:22:36.102Z,40.34
2018-02-25T09:23:36.065Z,40.25
2018-02-25T09:24:36.034Z,40.22
2018-02-25T09:25:35.985Z,40.51
2018-02-25T09:26:36.050Z,40.89
2018-02-25T09:27:35.912Z,40.98
2018-02-25T09:28:35.929Z,40.63
2018-02-25T09:29:35.837Z,39.56
2018-02-25T09:30:35.803Z,39.37
2018-02-25T09:31:35.780Z,39.18
2018-02-25T09:32:35.724Z,39.01
2018-02-25T09:33:35.677Z,38.43
2018-02-25T09:34:36.407Z,38.52
2018-02-25T09:35:36.405Z,39.36
2018-02-25T09:36:35.608Z,39.36
2018-02-25T09:37:35.538Z,38.98
2018-02-25T09:38:35.498Z,39.07
2018-02-25T09:39:35.456Z,39.17
2018-02-25T09:40:35.446Z,39.73
2018-02-25T09:41:35.427Z,39.92
2018-02-25T09:42:35.345Z,39.83
2018-02-25T09:43:35.297Z,39.65
2018-02-25T09:44:35.264Z,39.00
2018-02-25T09:45:35.226Z,38.52
2018-02-25T09:46:35.194Z,38.16
2018-02-25T09:47:35.169Z,37.97
2018-02-25T09:48:35.112Z,37.38
2018-02-25T09:49:35.079Z,37.48
2018-02-25T09:50:35.029Z,37.50
2018-02-25T09:51:34.989Z,36.83
2018-02-25T09:52:34.980Z,37.38
2018-02-25T09:53:34.920Z,37.76
2018-02-25T09:54:34.873Z,38.35
2018-02-25T09:55:34.837Z,37.90
2018-02-25T09:56:34.806Z,37.52
2018-02-25T09:57:34.780Z,37.61
2018-02-25T09:58:34.724Z,37.14
2018-02-25T09:59:34.680Z,36.85
2018-02-25T10:00:34.651Z,36.29
2018-02-25T10:01:34.616Z,35.91
2018-02-25T10:02:34.607Z,35.60
2018-02-25T10:03:34.544Z,36.55
2018-02-25T10:04:34.513Z,37.02
2018-02-25T10:05:34.464Z,37.69
2018-02-25T10:06:34.422Z,38.18
2018-02-25T10:07:34.373Z,37.78
2018-02-25T10:08:34.369Z,37.78
2018-02-25T10:09:34.301Z,37.95
2018-02-25T10:10:34.258Z,39.01
2018-02-25T10:11:34.244Z,39.29
2018-02-25T10:12:34.193Z,38.54
2018-02-25T10:13:34.173Z,37.90
2018-02-25T10:14:34.107Z,37.52
2018-02-25T10:15:34.071Z,37.23
2018-02-25T10:16:34.030Z,36.76
2018-02-25T10:17:33.998Z,37.12
2018-02-25T10:18:33.978Z,37.69
2018-02-25T10:19:33.920Z,37.69
2018-02-25T10:20:33.888Z,37.59
2018-02-25T10:21:33.850Z,37.52
2018-02-25T10:22:33.809Z,36.85
2018-02-25T10:23:33.788Z,37.04
2018-02-25T10:24:33.752Z,36.66
2018-02-25T10:25:33.689Z,37.14
2018-02-25T10:26:33.653Z,37.38
2018-02-25T10:27:33.627Z,38.05
2018-02-25T10:28:33.600Z,39.01
2018-02-25T10:29:33.546Z,39.20
2018-02-25T10:30:33.514Z,38.45
2018-02-25T10:31:33.465Z,37.99
2018-02-25T10:32:33.422Z,37.80
2018-02-25T10:33:33.419Z,37.14
2018-02-25T10:34:33.358Z,37.04
2018-02-25T10:35:33.333Z,36.27
2018-02-25T10:36:33.278Z,36.93
2018-02-25T10:37:33.238Z,37.33
2018-02-25T10:38:33.206Z,36.47
2018-02-25T10:39:33.190Z,36.10
2018-02-25T10:40:33.143Z,36.08
2018-02-25T10:41:33.084Z,35.68
2018-02-25T10:42:33.062Z,36.44
2018-02-25T10:43:33.008Z,37.21
2018-02-25T10:44:32.994Z,36.93
2018-02-25T10:45:32.952Z,36.74
2018-02-25T10:46:32.895Z,36.65
2018-02-25T10:47:32.871Z,37.02
2018-02-25T10:48:33.331Z,36.55
2018-02-25T10:49:32.829Z,36.17
2018-02-25T10:50:32.745Z,35.89
2018-02-25T10:51:32.709Z,36.35
2018-02-25T10:52:32.669Z,37.01
2018-02-25T10:53:32.640Z,37.38
2018-02-25T10:54:32.602Z,37.78
2018-02-25T10:55:32.586Z,37.69
2018-02-25T10:56:32.515Z,37.12
2018-02-25T10:57:32.476Z,37.04
2018-02-25T10:58:32.441Z,36.76
2018-02-25T10:59:32.423Z,36.47
2018-02-25T11:00:32.371Z,36.21
2018-02-25T11:01:32.325Z,35.53
2018-02-25T11:02:32.292Z,35.43
2018-02-25T11:03:32.277Z,35.81
2018-02-25T11:04:32.249Z,36.00
2018-02-25T11:05:32.221Z,35.89
2018-02-25T11:06:32.151Z,36.72
2018-02-25T11:07:32.107Z,37.31
2018-02-25T11:08:32.072Z,37.50
2018-02-25T11:09:32.030Z,37.38
2018-02-25T11:10:32.024Z,37.97
2018-02-25T11:11:31.949Z,37.59
2018-02-25T11:12:31.923Z,37.10
2018-02-25T11:13:31.875Z,37.59
2018-02-25T11:14:31.887Z,37.69
2018-02-25T11:15:31.834Z,37.40
2018-02-25T11:16:31.758Z,37.01
2018-02-25T11:17:31.728Z,37.38
2018-02-25T11:18:31.695Z,37.48
2018-02-25T11:19:31.651Z,37.69
2018-02-25T11:20:31.646Z,36.83
2018-02-25T11:21:31.574Z,37.02
2018-02-25T11:22:31.538Z,36.63
2018-02-25T11:23:31.503Z,36.17
2018-02-25T11:24:31.456Z,36.65
2018-02-25T11:25:31.415Z,36.27
2018-02-25T11:26:31.412Z,36.08
2018-02-25T11:27:31.353Z,35.62
2018-02-25T11:28:31.324Z,35.51
2018-02-25T11:29:31.265Z,35.49
2018-02-25T11:30:31.235Z,36.27
2018-02-25T11:31:31.311Z,36.35
2018-02-25T11:32:31.161Z,36.44
2018-02-25T11:33:31.124Z,36.72
2018-02-25T11:34:31.082Z,36.93
2018-02-25T11:35:31.044Z,36.91
2018-02-25T11:36:31.034Z,36.63
2018-02-25T11:37:30.965Z,36.72
2018-02-25T11:38:30.925Z,37.19
2018-02-25T11:39:30.897Z,36.63
2018-02-25T11:40:30.889Z,36.91
2018-02-25T11:41:30.818Z,37.10
2018-02-25T11:42:30.800Z,37.19
2018-02-25T11:43:30.739Z,37.29
2018-02-25T11:44:30.697Z,37.10
2018-02-25T11:45:30.654Z,36.72
2018-02-25T11:46:30.616Z,37.48
2018-02-25T11:47:30.603Z,37.29
2018-02-25T11:48:30.543Z,37.19
2018-02-25T11:49:30.509Z,37.40
2018-02-25T11:50:30.470Z,36.72
2018-02-25T11:51:30.434Z,37.01
2018-02-25T11:52:30.420Z,36.82
2018-02-25T11:53:30.350Z,36.91
2018-02-25T11:54:30.318Z,36.93
2018-02-25T11:55:30.289Z,37.12
2018-02-25T11:56:30.238Z,36.74
2018-02-25T11:57:30.221Z,36.83
2018-02-25T11:58:30.165Z,37.10
2018-02-25T11:59:30.129Z,37.67
2018-02-25T12:00:30.085Z,38.05
2018-02-25T12:01:30.085Z,38.14
2018-02-25T12:02:30.075Z,38.24
2018-02-25T12:03:30.044Z,37.88
2018-02-25T12:04:29.932Z,37.97
2018-02-25T12:05:29.895Z,37.95
2018-02-25T12:06:29.860Z,38.60
2018-02-25T12:07:29.825Z,39.54
2018-02-25T12:08:29.810Z,40.32
2018-02-25T12:09:29.749Z,40.98
2018-02-25T12:10:30.444Z,41.27
2018-02-25T12:11:29.671Z,40.70
2018-02-25T12:12:29.634Z,40.60
2018-02-25T12:13:29.626Z,40.32
2018-02-25T12:14:29.559Z,40.41
2018-02-25T12:15:29.520Z,40.22
2018-02-25T12:16:29.483Z,41.08
2018-02-25T12:17:29.442Z,40.51
2018-02-25T12:18:29.426Z,40.22
2018-02-25T12:19:29.375Z,40.70
2018-02-25T12:20:29.386Z,40.70
2018-02-25T12:21:29.286Z,40.32
2018-02-25T12:22:29.248Z,40.89
2018-02-25T12:23:29.239Z,40.70
2018-02-25T12:24:29.182Z,40.70
2018-02-25T12:25:29.140Z,40.32
2018-02-25T12:26:29.109Z,40.20
2018-02-25T12:27:29.069Z,40.68
2018-02-25T12:28:29.052Z,41.44
2018-02-25T12:29:28.985Z,42.19
2018-02-25T12:30:28.948Z,42.10
2018-02-25T12:31:28.945Z,41.44
2018-02-25T12:32:28.864Z,41.83
2018-02-25T12:33:28.826Z,41.08
2018-02-25T12:34:28.824Z,40.89
2018-02-25T12:35:28.781Z,40.68
2018-02-25T12:36:28.732Z,40.68
2018-02-25T12:37:28.675Z,41.06
2018-02-25T12:38:28.642Z,40.58
2018-02-25T12:39:28.626Z,40.96
2018-02-25T12:40:28.564Z,40.77
2018-02-25T12:41:28.520Z,41.34
2018-02-25T12:42:28.489Z,41.25
2018-02-25T12:43:28.442Z,41.44
2018-02-25T12:44:28.430Z,41.15
2018-02-25T12:45:28.369Z,42.19
2018-02-25T12:46:28.329Z,41.72
2018-02-25T12:47:28.321Z,41.44
2018-02-25T12:48:28.256Z,41.34
2018-02-25T12:49:28.243Z,41.15
2018-02-25T12:50:28.178Z,41.53
2018-02-25T12:51:28.140Z,41.53